Time;durP1;ratioP1;P1;durP2;ratioP2;P2;SDS_P1;SDS_P2;PMS_P1;PMS_P2;Temp;Humidity;BMP_temperature;BMP_pressure;BME280_temperature;BME280_humidity;BME280_pressure;Samples;Min_cycle;Max_cycle;Signal;HPM_P1;HPM_P2
2022/10/18 00:01:04;;;;;;;;;;;13.90;99.90;;;;;;5059286;28;19916;-55
2022/10/18 00:03:30;;;;;;;;;;;13.90;99.90;;;;;;5059110;28;19913;-52
2022/10/18 00:05:56;;;;;;;;;;;13.90;99.90;;;;;;5058982;28;19921;-50
2022/10/18 00:08:21;;;;;;;;;;;13.80;99.90;;;;;;5058989;28;20480;-55
2022/10/18 00:10:47;;;;;;;;;;;13.90;99.90;;;;;;5058960;28;20414;-51
2022/10/18 00:13:13;;;;;;;;;;;13.90;99.90;;;;;;5059306;28;19909;-51
2022/10/18 00:15:39;;;;;;;;;;;13.80;99.90;;;;;;5059118;28;20007;-55
2022/10/18 00:18:04;;;;;;;;;;;13.80;99.90;;;;;;5058898;28;19916;-55
2022/10/18 00:20:30;;;;;;;;;;;13.80;99.90;;;;;;5058981;28;20284;-53
2022/10/18 00:22:56;;;;;;;;;;;13.80;99.90;;;;;;5059146;28;19909;-56
2022/10/18 00:25:21;;;;;;;;;;;13.80;99.90;;;;;;5058755;28;20381;-55
2022/10/18 00:27:47;;;;;;;;;;;13.80;99.90;;;;;;5058945;28;20280;-54
2022/10/18 00:30:13;;;;;;;;;;;13.80;99.90;;;;;;5058864;28;19909;-52
2022/10/18 00:32:39;;;;;;;;;;;13.70;99.90;;;;;;5058692;28;19909;-52
2022/10/18 00:35:05;;;;;;;;;;;13.80;99.90;;;;;;5058792;28;19909;-53
2022/10/18 00:37:31;;;;;;;;;;;13.80;99.90;;;;;;5058693;28;19948;-51
2022/10/18 00:39:57;;;;;;;;;;;13.80;99.90;;;;;;5058498;28;19916;-56
2022/10/18 00:42:25;;;;;;;;;;;13.80;99.90;;;;;;5058639;28;20327;-54
2022/10/18 00:44:51;;;;;;;;;;;13.80;99.90;;;;;;5057025;28;19909;-54
2022/10/18 00:47:17;;;;;;;;;;;13.80;99.90;;;;;;5058329;28;19913;-51
2022/10/18 00:49:44;;;;;;;;;;;13.80;99.90;;;;;;5058650;28;19909;-55
2022/10/18 00:52:12;;;;;;;;;;;13.80;99.90;;;;;;5058472;28;19909;-54
2022/10/18 00:54:39;;;;;;;;;;;13.80;99.90;;;;;;5058244;28;19915;-53
2022/10/18 00:57:05;;;;;;;;;;;13.80;99.90;;;;;;5058639;28;19916;-53
2022/10/18 00:59:31;;;;;;;;;;;13.80;99.90;;;;;;5058091;28;19931;-52
2022/10/18 01:01:57;;;;;;;;;;;13.80;99.90;;;;;;5058338;28;19913;-52
2022/10/18 01:04:23;;;;;;;;;;;13.80;99.90;;;;;;5058473;28;19958;-55
2022/10/18 01:06:56;;;;;;;;;;;13.80;99.90;;;;;;5057643;28;19920;-51
2022/10/18 01:09:36;;;;;;;;;;;13.80;99.90;;;;;;5058257;28;19909;-55
2022/10/18 01:12:29;;;;;;;;;;;13.70;99.90;;;;;;5058305;28;19916;-55
2022/10/18 01:15:00;;;;;;;;;;;13.70;99.90;;;;;;5057964;28;19909;-54
2022/10/18 01:17:31;;;;;;;;;;;13.70;99.90;;;;;;5058152;28;19963;-53
2022/10/18 01:19:57;;;;;;;;;;;13.70;99.90;;;;;;5058188;28;19909;-50
2022/10/18 01:22:26;;;;;;;;;;;13.70;99.90;;;;;;5057888;28;19916;-53
2022/10/18 01:24:58;;;;;;;;;;;13.70;99.90;;;;;;5058008;28;19992;-55
2022/10/18 01:27:26;;;;;;;;;;;13.60;99.90;;;;;;5057661;28;19920;-54
2022/10/18 01:30:02;;;;;;;;;;;13.60;99.90;;;;;;5057815;28;19909;-52
2022/10/18 01:32:29;;;;;;;;;;;13.60;99.90;;;;;;5057671;28;20334;-50
2022/10/18 01:34:58;;;;;;;;;;;13.60;99.90;;;;;;5057964;28;19909;-51
2022/10/18 01:37:24;;;;;;;;;;;13.60;99.90;;;;;;5057720;28;19909;-56
2022/10/18 01:39:53;;;;;;;;;;;13.60;99.90;;;;;;5057855;28;19908;-52
2022/10/18 01:42:19;;;;;;;;;;;13.60;99.90;;;;;;5057900;28;19909;-53
2022/10/18 01:44:46;;;;;;;;;;;13.60;99.90;;;;;;5057669;28;19939;-55
2022/10/18 01:47:12;;;;;;;;;;;13.60;99.90;;;;;;5057535;28;19920;-52
2022/10/18 01:49:38;;;;;;;;;;;13.60;99.90;;;;;;5057817;28;19962;-51
2022/10/18 01:52:04;;;;;;;;;;;13.60;99.90;;;;;;5057501;28;19956;-53
2022/10/18 01:54:34;;;;;;;;;;;13.70;99.90;;;;;;5057934;28;19912;-51
2022/10/18 01:56:59;;;;;;;;;;;13.70;99.90;;;;;;5057529;28;19909;-54
2022/10/18 01:59:43;;;;;;;;;;;13.60;99.90;;;;;;5057707;28;19912;-52
2022/10/18 02:02:16;;;;;;;;;;;13.60;99.90;;;;;;5057476;28;19958;-51
2022/10/18 02:04:48;;;;;;;;;;;13.60;99.90;;;;;;5057525;28;20294;-54
2022/10/18 02:07:26;;;;;;;;;;;13.60;99.90;;;;;;5057638;28;19917;-55
2022/10/18 02:09:59;;;;;;;;;;;13.60;99.90;;;;;;5057514;28;20303;-55
2022/10/18 02:12:27;;;;;;;;;;;13.50;99.90;;;;;;5057778;28;19908;-50
2022/10/18 02:14:53;;;;;;;;;;;13.50;99.90;;;;;;5057563;28;20009;-55
2022/10/18 02:17:19;;;;;;;;;;;13.50;99.90;;;;;;5057595;28;19949;-54
2022/10/18 02:19:47;;;;;;;;;;;13.50;99.90;;;;;;5055943;28;20399;-52
2022/10/18 02:22:14;;;;;;;;;;;13.50;99.90;;;;;;5056072;28;19916;-53
2022/10/18 02:24:45;;;;;;;;;;;13.40;99.90;;;;;;5057421;28;19909;-52
2022/10/18 02:27:11;;;;;;;;;;;13.40;99.90;;;;;;5057248;28;19944;-56
2022/10/18 02:29:37;;;;;;;;;;;13.40;99.90;;;;;;5057644;28;19909;-54
2022/10/18 02:32:08;;;;;;;;;;;13.40;99.90;;;;;;5057551;28;19909;-55
2022/10/18 02:34:41;;;;;;;;;;;13.40;99.90;;;;;;5057367;28;19913;-55
2022/10/18 02:37:07;;;;;;;;;;;13.40;99.90;;;;;;5057135;28;19958;-56
2022/10/18 02:39:36;;;;;;;;;;;13.40;99.90;;;;;;5057054;28;19909;-55
2022/10/18 02:42:06;;;;;;;;;;;13.40;99.90;;;;;;5057319;28;19909;-53
2022/10/18 02:44:35;;;;;;;;;;;13.40;99.90;;;;;;5060422;28;19909;-54
2022/10/18 02:47:01;;;;;;;;;;;13.40;99.90;;;;;;5060760;28;19920;-54
2022/10/18 02:49:26;;;;;;;;;;;13.40;99.90;;;;;;5060826;28;19909;-53
2022/10/18 02:51:52;;;;;;;;;;;13.40;99.90;;;;;;5060764;28;20050;-56
2022/10/18 02:54:17;;;;;;;;;;;13.30;99.90;;;;;;5060689;28;19908;-55
2022/10/18 02:56:43;;;;;;;;;;;13.30;99.90;;;;;;5060559;28;19958;-54
2022/10/18 02:59:09;;;;;;;;;;;13.30;99.90;;;;;;5060495;28;20001;-51
2022/10/18 03:01:35;;;;;;;;;;;13.30;99.90;;;;;;5060557;28;19913;-51
2022/10/18 03:04:01;;;;;;;;;;;13.40;99.90;;;;;;5060522;28;19959;-55
2022/10/18 03:06:26;;;;;;;;;;;13.30;99.90;;;;;;5060148;28;20016;-52
2022/10/18 03:08:52;;;;;;;;;;;13.30;99.90;;;;;;5060398;28;20345;-56
2022/10/18 03:11:18;;;;;;;;;;;13.30;99.90;;;;;;5060352;28;19909;-53
2022/10/18 03:13:44;;;;;;;;;;;13.20;99.90;;;;;;5060169;28;19941;-56
2022/10/18 03:16:10;;;;;;;;;;;13.30;99.90;;;;;;5060465;28;19916;-54
2022/10/18 03:18:35;;;;;;;;;;;13.20;99.90;;;;;;5060218;28;19919;-53
2022/10/18 03:21:04;;;;;;;;;;;13.20;99.90;;;;;;5060359;28;19909;-54
2022/10/18 03:23:30;;;;;;;;;;;13.20;99.90;;;;;;5059933;28;19991;-52
2022/10/18 03:25:56;;;;;;;;;;;13.20;99.90;;;;;;5060189;28;20014;-53
2022/10/18 03:28:21;;;;;;;;;;;13.20;99.90;;;;;;5059785;28;19913;-56
2022/10/18 03:30:47;;;;;;;;;;;13.20;99.90;;;;;;5060030;28;20383;-55
2022/10/18 03:33:12;;;;;;;;;;;13.20;99.90;;;;;;5059819;28;19975;-51
2022/10/18 03:35:38;;;;;;;;;;;13.10;99.90;;;;;;5060002;28;19916;-54
2022/10/18 03:38:04;;;;;;;;;;;13.20;99.90;;;;;;5058376;28;19915;-53
2022/10/18 03:40:29;;;;;;;;;;;13.20;99.90;;;;;;5059573;28;19987;-55
2022/10/18 03:42:55;;;;;;;;;;;13.20;99.90;;;;;;5059683;28;19966;-51
2022/10/18 03:45:21;;;;;;;;;;;13.10;99.90;;;;;;5059600;28;19909;-53
2022/10/18 03:47:46;;;;;;;;;;;13.20;99.90;;;;;;5059934;28;19951;-50
2022/10/18 03:50:12;;;;;;;;;;;13.10;99.90;;;;;;5059504;28;19915;-54
2022/10/18 03:52:37;;;;;;;;;;;13.10;99.90;;;;;;5059494;28;19982;-54
2022/10/18 03:55:03;;;;;;;;;;;13.10;99.90;;;;;;5059327;28;19931;-55
2022/10/18 03:57:29;;;;;;;;;;;13.20;99.90;;;;;;5059550;28;19909;-52
2022/10/18 03:59:54;;;;;;;;;;;13.10;99.90;;;;;;5059770;28;19996;-53
2022/10/18 04:02:20;;;;;;;;;;;13.20;99.90;;;;;;5059451;28;19912;-56
2022/10/18 04:04:46;;;;;;;;;;;13.20;99.90;;;;;;5059078;28;19944;-52
2022/10/18 04:07:11;;;;;;;;;;;13.20;99.90;;;;;;5059308;28;20012;-52
2022/10/18 04:09:37;;;;;;;;;;;13.20;99.90;;;;;;5059121;28;19909;-53
2022/10/18 04:12:03;;;;;;;;;;;13.20;99.90;;;;;;5059242;28;19909;-51
2022/10/18 04:14:28;;;;;;;;;;;13.20;99.90;;;;;;5058326;28;20047;-52
2022/10/18 04:16:54;;;;;;;;;;;13.20;99.90;;;;;;5059221;28;19909;-55
2022/10/18 04:19:19;;;;;;;;;;;13.20;99.90;;;;;;5059154;28;19909;-55
2022/10/18 04:21:45;;;;;;;;;;;13.20;99.90;;;;;;5059048;28;20364;-52
2022/10/18 04:24:10;;;;;;;;;;;13.20;99.90;;;;;;5059146;28;19908;-54
2022/10/18 04:26:36;;;;;;;;;;;13.20;99.90;;;;;;5059126;28;19909;-55
2022/10/18 04:29:02;;;;;;;;;;;13.20;99.90;;;;;;5058847;28;19916;-55
2022/10/18 04:31:27;;;;;;;;;;;13.20;99.90;;;;;;5059032;28;19916;-56
2022/10/18 04:33:53;;;;;;;;;;;13.20;99.90;;;;;;5059062;28;19909;-53
2022/10/18 04:36:19;;;;;;;;;;;13.30;99.90;;;;;;5058771;28;19959;-54
2022/10/18 04:38:44;;;;;;;;;;;13.20;99.90;;;;;;5058517;28;19908;-53
2022/10/18 04:41:10;;;;;;;;;;;13.20;99.90;;;;;;5058991;28;19995;-53
2022/10/18 04:43:35;;;;;;;;;;;13.20;99.90;;;;;;5058470;28;20331;-52
2022/10/18 04:46:01;;;;;;;;;;;13.30;99.90;;;;;;5058682;28;19909;-49
2022/10/18 04:48:27;;;;;;;;;;;13.30;99.90;;;;;;5058269;28;19912;-51
2022/10/18 04:50:52;;;;;;;;;;;13.30;99.90;;;;;;5058426;28;19944;-51
2022/10/18 04:53:18;;;;;;;;;;;13.20;99.90;;;;;;5058729;28;20270;-54
2022/10/18 04:55:47;;;;;;;;;;;13.30;99.90;;;;;;5058294;28;19966;-54
2022/10/18 04:58:13;;;;;;;;;;;13.20;99.90;;;;;;5058423;28;19909;-53
2022/10/18 05:00:39;;;;;;;;;;;13.30;99.90;;;;;;5058363;28;20288;-51
2022/10/18 05:03:05;;;;;;;;;;;13.30;99.90;;;;;;5058142;28;19909;-54
2022/10/18 05:05:30;;;;;;;;;;;13.30;99.90;;;;;;5057363;28;19968;-52
2022/10/18 05:07:56;;;;;;;;;;;13.30;99.90;;;;;;5058184;28;19917;-55
2022/10/18 05:10:21;;;;;;;;;;;13.30;99.90;;;;;;5058503;28;19909;-51
2022/10/18 05:12:48;;;;;;;;;;;13.30;99.90;;;;;;5058244;28;19909;-54
2022/10/18 05:15:13;;;;;;;;;;;13.30;99.90;;;;;;5057881;28;19909;-53
2022/10/18 05:17:39;;;;;;;;;;;13.40;99.90;;;;;;5058181;28;19909;-53
2022/10/18 05:20:05;;;;;;;;;;;13.40;99.90;;;;;;5058106;28;19908;-54
2022/10/18 05:22:30;;;;;;;;;;;13.50;99.90;;;;;;5058095;28;19909;-56
2022/10/18 05:24:56;;;;;;;;;;;13.60;99.90;;;;;;5058078;28;19908;-55
2022/10/18 05:27:22;;;;;;;;;;;13.60;99.90;;;;;;5057935;28;20011;-55
2022/10/18 05:29:47;;;;;;;;;;;13.60;99.90;;;;;;5058081;28;19913;-53
2022/10/18 05:32:13;;;;;;;;;;;13.70;99.90;;;;;;5057892;28;19909;-53
2022/10/18 05:34:38;;;;;;;;;;;13.70;99.90;;;;;;5057822;28;19909;-51
2022/10/18 05:37:05;;;;;;;;;;;13.70;99.90;;;;;;5057745;28;19909;-53
2022/10/18 05:39:31;;;;;;;;;;;13.80;99.90;;;;;;5057749;28;19909;-54
2022/10/18 05:41:57;;;;;;;;;;;13.80;99.90;;;;;;5057728;28;19959;-54
2022/10/18 05:44:22;;;;;;;;;;;13.80;99.90;;;;;;5057884;28;19909;-55
2022/10/18 05:46:48;;;;;;;;;;;13.80;99.90;;;;;;5057757;28;19909;-51
2022/10/18 05:49:14;;;;;;;;;;;13.80;99.90;;;;;;5057644;28;19958;-52
2022/10/18 05:51:39;;;;;;;;;;;13.90;99.90;;;;;;5057421;28;19908;-54
2022/10/18 05:54:05;;;;;;;;;;;13.90;99.90;;;;;;5057793;28;20043;-53
2022/10/18 05:56:31;;;;;;;;;;;13.90;99.90;;;;;;5057502;28;19908;-52
2022/10/18 05:58:56;;;;;;;;;;;14.00;99.90;;;;;;5056768;28;20275;-54
2022/10/18 06:01:22;;;;;;;;;;;14.00;99.90;;;;;;5057178;28;19909;-53
2022/10/18 06:03:47;;;;;;;;;;;14.00;99.90;;;;;;5057525;28;19909;-53
2022/10/18 06:06:13;;;;;;;;;;;14.10;99.90;;;;;;5057301;28;19932;-53
2022/10/18 06:08:40;;;;;;;;;;;14.00;99.90;;;;;;5057599;28;20020;-54
2022/10/18 06:11:12;;;;;;;;;;;14.10;99.90;;;;;;5057272;28;19919;-54
2022/10/18 06:13:45;;;;;;;;;;;14.10;99.90;;;;;;5057233;28;19943;-51
2022/10/18 06:16:12;;;;;;;;;;;14.20;99.90;;;;;;5057314;28;19916;-56
2022/10/18 06:18:37;;;;;;;;;;;14.20;99.90;;;;;;5060748;28;19908;-52
2022/10/18 06:21:03;;;;;;;;;;;14.20;99.90;;;;;;5061394;28;19976;-55
2022/10/18 06:23:29;;;;;;;;;;;14.20;99.90;;;;;;5060998;28;19908;-55
2022/10/18 06:26:02;;;;;;;;;;;14.30;99.90;;;;;;5061093;28;19915;-55
2022/10/18 06:28:28;;;;;;;;;;;14.30;99.90;;;;;;5061138;28;19920;-55
2022/10/18 06:30:54;;;;;;;;;;;14.30;99.90;;;;;;5059316;28;20435;-54
2022/10/18 06:33:19;;;;;;;;;;;14.30;99.90;;;;;;5060828;28;19958;-54
2022/10/18 06:35:58;;;;;;;;;;;14.30;99.90;;;;;;5061010;28;19913;-53
2022/10/18 06:38:24;;;;;;;;;;;14.40;99.90;;;;;;5060728;28;19908;-54
2022/10/18 06:40:50;;;;;;;;;;;14.40;99.90;;;;;;5060523;28;20399;-52
2022/10/18 06:43:15;;;;;;;;;;;14.40;99.90;;;;;;5060875;28;20005;-53
2022/10/18 06:45:41;;;;;;;;;;;14.50;99.90;;;;;;5060551;28;20312;-52
2022/10/18 06:48:06;;;;;;;;;;;14.50;99.90;;;;;;5060743;28;19913;-54
2022/10/18 06:50:32;;;;;;;;;;;14.50;99.90;;;;;;5060530;28;19959;-55
2022/10/18 06:52:58;;;;;;;;;;;14.60;99.90;;;;;;5060622;28;19909;-54
2022/10/18 06:55:23;;;;;;;;;;;14.60;99.90;;;;;;5060661;28;19916;-53
2022/10/18 06:57:49;;;;;;;;;;;14.60;99.90;;;;;;5060542;28;19909;-55
2022/10/18 07:00:14;;;;;;;;;;;14.70;99.90;;;;;;5060456;28;19961;-52
2022/10/18 07:02:40;;;;;;;;;;;14.70;99.90;;;;;;5060669;28;19909;-53
2022/10/18 07:05:06;;;;;;;;;;;14.70;99.90;;;;;;5060265;28;19913;-54
2022/10/18 07:07:32;;;;;;;;;;;14.80;99.90;;;;;;5060350;28;20381;-56
2022/10/18 07:09:57;;;;;;;;;;;14.80;99.90;;;;;;5060502;28;19916;-54
2022/10/18 07:12:23;;;;;;;;;;;14.80;99.90;;;;;;5060447;28;20254;-54
2022/10/18 07:14:48;;;;;;;;;;;14.90;99.90;;;;;;5059904;28;19916;-54
2022/10/18 07:17:14;;;;;;;;;;;14.90;99.90;;;;;;5060434;28;19909;-54
2022/10/18 07:19:40;;;;;;;;;;;15.00;99.90;;;;;;5060183;28;19948;-55
2022/10/18 07:22:05;;;;;;;;;;;14.90;99.90;;;;;;5060225;28;19960;-52
2022/10/18 07:24:31;;;;;;;;;;;15.00;99.90;;;;;;5060459;28;20004;-53
2022/10/18 07:26:56;;;;;;;;;;;15.10;99.90;;;;;;5060003;28;19937;-54
2022/10/18 07:29:22;;;;;;;;;;;15.10;99.90;;;;;;5059083;28;20011;-52
2022/10/18 07:31:48;;;;;;;;;;;15.10;99.90;;;;;;5060296;28;19915;-52
2022/10/18 07:34:13;;;;;;;;;;;15.20;99.90;;;;;;5060005;28;19916;-54
2022/10/18 07:36:39;;;;;;;;;;;15.20;99.90;;;;;;5059830;28;20369;-53
2022/10/18 07:39:05;;;;;;;;;;;15.30;99.90;;;;;;5059891;28;19988;-56
2022/10/18 07:41:32;;;;;;;;;;;15.30;99.90;;;;;;5059844;28;19983;-53
2022/10/18 07:43:59;;;;;;;;;;;15.40;99.90;;;;;;5059805;28;20272;-52
2022/10/18 07:46:24;;;;;;;;;;;15.40;99.90;;;;;;5059843;28;19908;-56
2022/10/18 07:48:50;;;;;;;;;;;15.50;99.90;;;;;;5059652;28;19920;-54
2022/10/18 07:51:17;;;;;;;;;;;15.60;99.90;;;;;;5058056;28;19920;-52
2022/10/18 07:53:42;;;;;;;;;;;15.60;99.90;;;;;;5059880;28;19909;-53
2022/10/18 07:56:10;;;;;;;;;;;15.60;99.90;;;;;;5059451;28;19972;-54
2022/10/18 07:58:36;;;;;;;;;;;15.70;99.90;;;;;;5059309;28;19944;-52
2022/10/18 08:01:05;;;;;;;;;;;15.70;99.90;;;;;;5059397;28;19967;-53
2022/10/18 08:03:31;;;;;;;;;;;15.80;99.90;;;;;;5059472;28;20340;-53
2022/10/18 08:05:57;;;;;;;;;;;15.80;99.90;;;;;;5059205;28;19924;-53
2022/10/18 08:08:23;;;;;;;;;;;15.90;99.90;;;;;;5059070;28;19924;-55
2022/10/18 08:10:49;;;;;;;;;;;16.00;99.90;;;;;;5059308;28;19909;-55
2022/10/18 08:13:14;;;;;;;;;;;16.00;99.90;;;;;;5059131;28;19909;-56
2022/10/18 08:15:40;;;;;;;;;;;16.10;99.90;;;;;;5059273;28;20315;-52
2022/10/18 08:18:05;;;;;;;;;;;16.10;99.90;;;;;;5059178;28;19913;-52
2022/10/18 08:20:32;;;;;;;;;;;16.20;99.90;;;;;;5059176;28;19915;-53
2022/10/18 08:22:58;;;;;;;;;;;16.20;99.90;;;;;;5059079;28;19931;-55
2022/10/18 08:25:24;;;;;;;;;;;16.30;99.90;;;;;;5059044;28;19916;-55
2022/10/18 08:27:49;;;;;;;;;;;16.30;99.90;;;;;;5058913;28;20369;-54
2022/10/18 08:30:15;;;;;;;;;;;16.30;99.90;;;;;;5058731;28;20329;-54
2022/10/18 08:32:40;;;;;;;;;;;16.40;99.90;;;;;;5058902;28;19912;-53
2022/10/18 08:35:06;;;;;;;;;;;16.50;99.90;;;;;;5058711;28;19939;-51
2022/10/18 08:37:32;;;;;;;;;;;16.50;99.90;;;;;;5058609;28;19931;-51
2022/10/18 08:39:57;;;;;;;;;;;16.60;99.90;;;;;;5058762;28;19909;-52
2022/10/18 08:42:42;;;;;;;;;;;16.60;99.90;;;;;;5058771;28;20365;-53
2022/10/18 08:45:09;;;;;;;;;;;16.70;99.90;;;;;;5058739;28;19989;-53
2022/10/18 08:47:39;;;;;;;;;;;16.80;99.90;;;;;;5058602;28;19913;-56
2022/10/18 08:50:21;;;;;;;;;;;16.80;99.90;;;;;;5058386;28;20004;-54
2022/10/18 08:52:50;;;;;;;;;;;16.80;99.90;;;;;;5058555;28;19916;-55
2022/10/18 08:55:37;;;;;;;;;;;16.80;99.90;;;;;;5058780;28;19917;-56
2022/10/18 08:58:10;;;;;;;;;;;16.80;99.90;;;;;;5058295;28;19909;-53
2022/10/18 09:00:39;;;;;;;;;;;16.90;99.90;;;;;;5056801;28;19960;-56
2022/10/18 09:03:16;;;;;;;;;;;16.90;99.90;;;;;;5058649;28;19909;-54
2022/10/18 09:05:50;;;;;;;;;;;17.00;99.90;;;;;;5058214;28;19964;-56
2022/10/18 09:08:22;;;;;;;;;;;17.10;99.90;;;;;;5057975;28;19952;-54
2022/10/18 09:10:55;;;;;;;;;;;17.20;99.90;;;;;;5056360;28;20152;-55
2022/10/18 09:13:21;;;;;;;;;;;17.20;99.90;;;;;;5058280;28;19912;-53
2022/10/18 09:15:49;;;;;;;;;;;17.40;99.90;;;;;;5057978;28;19909;-53
2022/10/18 09:18:26;;;;;;;;;;;17.50;99.90;;;;;;5058166;28;19908;-54
2022/10/18 09:20:55;;;;;;;;;;;17.70;99.90;;;;;;5057973;28;20364;-54
2022/10/18 09:23:22;;;;;;;;;;;17.80;99.90;;;;;;5058080;28;19909;-54
2022/10/18 09:25:55;;;;;;;;;;;18.00;99.90;;;;;;5058048;28;20326;-53
2022/10/18 09:28:32;;;;;;;;;;;18.10;99.90;;;;;;5058232;28;19913;-52
2022/10/18 09:31:08;;;;;;;;;;;18.10;99.90;;;;;;5057677;28;19909;-57
2022/10/18 09:33:38;;;;;;;;;;;18.10;99.90;;;;;;5057651;28;19962;-56
2022/10/18 09:36:07;;;;;;;;;;;18.10;99.90;;;;;;5057266;28;19916;-55
2022/10/18 09:38:47;;;;;;;;;;;18.20;99.90;;;;;;5057600;28;19913;-53
2022/10/18 09:41:13;;;;;;;;;;;18.00;99.90;;;;;;5057703;28;19908;-55
2022/10/18 09:43:38;;;;;;;;;;;18.00;99.90;;;;;;5057775;28;19909;-52
2022/10/18 09:46:04;;;;;;;;;;;18.00;99.90;;;;;;5057541;28;19963;-55
2022/10/18 09:48:41;;;;;;;;;;;18.00;99.90;;;;;;5057892;28;20007;-54
2022/10/18 09:51:20;;;;;;;;;;;18.10;99.90;;;;;;5057778;28;19909;-56
2022/10/18 09:53:46;;;;;;;;;;;18.70;99.90;;;;;;5061320;28;19909;-51
2022/10/18 09:56:16;;;;;;;;;;;19.20;99.90;;;;;;5061733;28;19958;-50
2022/10/18 09:58:41;;;;;;;;;;;19.30;99.90;;;;;;5061723;28;19915;-55
2022/10/18 10:01:07;;;;;;;;;;;19.50;99.90;;;;;;5061667;28;19909;-53
2022/10/18 10:03:33;;;;;;;;;;;19.60;99.80;;;;;;5061830;28;19916;-56
2022/10/18 10:06:11;;;;;;;;;;;19.80;99.80;;;;;;5061387;28;19921;-55
2022/10/18 10:08:39;;;;;;;;;;;20.30;99.90;;;;;;5061386;28;19967;-55
2022/10/18 10:11:24;;;;;;;;;;;20.70;99.60;;;;;;5061350;28;20265;-55
2022/10/18 10:13:50;;;;;;;;;;;21.10;98.80;;;;;;5061407;28;19909;-51
2022/10/18 10:16:15;;;;;;;;;;;21.30;98.50;;;;;;5061234;28;19913;-56
2022/10/18 10:18:42;;;;;;;;;;;21.40;98.90;;;;;;5061603;28;19908;-53
2022/10/18 10:21:13;;;;;;;;;;;21.50;96.70;;;;;;5061318;28;19995;-56
2022/10/18 10:23:56;;;;;;;;;;;21.80;97.30;;;;;;5061052;28;20319;-55
2022/10/18 10:26:23;;;;;;;;;;;21.70;97.80;;;;;;5060917;28;19955;-55
2022/10/18 10:28:49;;;;;;;;;;;21.50;95.60;;;;;;5061078;28;19958;-56
2022/10/18 10:31:17;;;;;;;;;;;21.10;95.70;;;;;;5060829;28;19911;-53
2022/10/18 10:33:45;;;;;;;;;;;21.10;96.50;;;;;;5061138;28;19915;-56
2022/10/18 10:36:18;;;;;;;;;;;21.30;97.20;;;;;;5060706;28;19909;-54
2022/10/18 10:38:44;;;;;;;;;;;21.60;98.10;;;;;;5060813;28;20314;-56
2022/10/18 10:41:19;;;;;;;;;;;21.70;95.60;;;;;;5060776;28;19913;-52
2022/10/18 10:43:45;;;;;;;;;;;21.50;96.10;;;;;;5060835;28;19913;-54
2022/10/18 10:46:15;;;;;;;;;;;21.90;97.60;;;;;;5061061;28;20360;-55
2022/10/18 10:48:48;;;;;;;;;;;22.10;95.50;;;;;;5060693;28;19917;-52
2022/10/18 10:51:15;;;;;;;;;;;22.50;96.10;;;;;;5060717;28;19999;-54
2022/10/18 10:53:50;;;;;;;;;;;23.10;97.50;;;;;;5060638;28;20444;-54
2022/10/18 10:56:27;;;;;;;;;;;23.60;94.40;;;;;;5061030;28;19916;-57
2022/10/18 10:58:54;;;;;;;;;;;24.00;96.10;;;;;;5060143;28;19909;-53
2022/10/18 11:01:20;;;;;;;;;;;24.10;93.00;;;;;;5060311;28;19954;-56
2022/10/18 11:03:47;;;;;;;;;;;24.10;95.10;;;;;;5059234;28;19912;-52
2022/10/18 11:06:27;;;;;;;;;;;24.40;92.70;;;;;;5060047;28;19927;-56
2022/10/18 11:08:56;;;;;;;;;;;24.90;93.70;;;;;;5060343;28;19935;-56
2022/10/18 11:11:31;;;;;;;;;;;25.40;91.00;;;;;;5060289;28;19999;-55
2022/10/18 11:13:56;;;;;;;;;;;25.00;88.70;;;;;;5060132;28;19996;-54
2022/10/18 11:16:27;;;;;;;;;;;25.20;91.90;;;;;;5060263;28;19952;-54
2022/10/18 11:18:55;;;;;;;;;;;25.20;89.20;;;;;;5060292;28;19908;-54
2022/10/18 11:21:22;;;;;;;;;;;25.00;90.90;;;;;;5060131;28;19916;-57
2022/10/18 11:23:48;;;;;;;;;;;24.50;90.00;;;;;;5060056;28;19908;-57
2022/10/18 11:26:22;;;;;;;;;;;24.50;89.00;;;;;;5060027;28;19971;-55
2022/10/18 11:28:48;;;;;;;;;;;24.40;85.80;;;;;;5059888;28;19913;-54
2022/10/18 11:31:16;;;;;;;;;;;24.30;91.80;;;;;;5059973;28;20004;-57
2022/10/18 11:33:42;;;;;;;;;;;24.50;90.20;;;;;;5059892;28;20292;-54
2022/10/18 11:36:13;;;;;;;;;;;24.90;90.00;;;;;;5059883;28;19909;-56
2022/10/18 11:38:55;;;;;;;;;;;24.90;86.40;;;;;;5059666;28;19916;-54
2022/10/18 11:41:31;;;;;;;;;;;24.30;91.70;;;;;;5059529;28;19916;-54
2022/10/18 11:43:58;;;;;;;;;;;24.30;89.20;;;;;;5059327;28;19920;-55
2022/10/18 11:46:26;;;;;;;;;;;24.10;92.70;;;;;;5059678;28;19908;-56
2022/10/18 11:48:55;;;;;;;;;;;24.00;88.60;;;;;;5059113;28;19912;-55
2022/10/18 11:51:26;;;;;;;;;;;23.90;91.10;;;;;;5059533;28;20257;-54
2022/10/18 11:53:55;;;;;;;;;;;23.60;87.90;;;;;;5059683;28;19908;-54
2022/10/18 11:56:26;;;;;;;;;;;23.10;90.20;;;;;;5059428;28;20352;-54
2022/10/18 11:58:59;;;;;;;;;;;23.30;91.10;;;;;;5059439;28;20395;-55
2022/10/18 12:01:43;;;;;;;;;;;23.40;90.50;;;;;;5059734;28;19909;-53
2022/10/18 12:04:13;;;;;;;;;;;23.20;91.20;;;;;;5059308;28;19915;-53
2022/10/18 12:06:40;;;;;;;;;;;23.10;91.40;;;;;;5058856;28;19920;-55
2022/10/18 12:09:26;;;;;;;;;;;23.20;90.90;;;;;;5058924;28;20386;-56
2022/10/18 12:11:54;;;;;;;;;;;23.40;92.40;;;;;;5059330;28;19908;-57
2022/10/18 12:14:20;;;;;;;;;;;23.50;91.00;;;;;;5058996;28;19916;-52
2022/10/18 12:16:46;;;;;;;;;;;23.70;90.30;;;;;;5058905;28;19943;-55
2022/10/18 12:19:19;;;;;;;;;;;24.30;94.80;;;;;;5059104;28;20004;-57
2022/10/18 12:21:45;;;;;;;;;;;24.50;91.50;;;;;;5058744;28;19960;-54
2022/10/18 12:24:15;;;;;;;;;;;25.00;91.10;;;;;;5057443;28;19909;-54
2022/10/18 12:26:40;;;;;;;;;;;25.20;85.60;;;;;;5058535;28;19944;-52
2022/10/18 12:29:24;;;;;;;;;;;25.50;90.50;;;;;;5059043;28;19916;-56
2022/10/18 12:32:10;;;;;;;;;;;25.70;87.90;;;;;;5058834;28;19916;-53
2022/10/18 12:34:48;;;;;;;;;;;26.10;85.70;;;;;;5058298;28;19920;-55
2022/10/18 12:37:24;;;;;;;;;;;26.50;92.90;;;;;;5058732;28;19908;-54
2022/10/18 12:39:52;;;;;;;;;;;26.70;89.40;;;;;;5058419;28;20364;-55
2022/10/18 12:42:22;;;;;;;;;;;26.60;92.20;;;;;;5058553;28;19909;-55
2022/10/18 12:44:48;;;;;;;;;;;26.70;85.40;;;;;;5058648;28;19931;-55
2022/10/18 12:47:32;;;;;;;;;;;26.90;85.50;;;;;;5058495;28;19975;-55
2022/10/18 12:49:59;;;;;;;;;;;26.80;79.30;;;;;;5058462;28;19935;-56
2022/10/18 12:52:27;;;;;;;;;;;26.70;84.20;;;;;;5058421;28;20414;-53
2022/10/18 12:55:08;;;;;;;;;;;26.80;76.50;;;;;;5058166;28;20387;-56
2022/10/18 12:57:52;;;;;;;;;;;27.10;88.20;;;;;;5058101;28;19909;-56
2022/10/18 13:00:30;;;;;;;;;;;26.70;82.40;;;;;;5058152;28;19916;-55
2022/10/18 13:03:08;;;;;;;;;;;26.70;86.50;;;;;;5058192;28;19908;-55
2022/10/18 13:05:51;;;;;;;;;;;26.70;76.80;;;;;;5057921;28;19928;-56
2022/10/18 13:08:26;;;;;;;;;;;26.60;76.00;;;;;;5058277;28;19913;-55
2022/10/18 13:11:07;;;;;;;;;;;26.50;87.60;;;;;;5058261;28;19909;-56
2022/10/18 13:13:56;;;;;;;;;;;26.40;87.70;;;;;;5058229;28;19939;-55
2022/10/18 13:16:21;;;;;;;;;;;26.00;78.80;;;;;;5058526;28;19908;-57
2022/10/18 13:19:06;;;;;;;;;;;25.60;81.70;;;;;;5058087;28;19909;-57
2022/10/18 13:21:40;;;;;;;;;;;25.40;85.20;;;;;;5058168;28;19947;-53
2022/10/18 13:24:09;;;;;;;;;;;25.20;79.20;;;;;;5058060;28;20384;-55
2022/10/18 13:26:53;;;;;;;;;;;25.00;82.80;;;;;;5057361;28;19908;-52
2022/10/18 13:29:19;;;;;;;;;;;24.70;84.40;;;;;;5058138;28;19924;-54
2022/10/18 13:31:48;;;;;;;;;;;24.60;87.00;;;;;;5058031;28;19909;-52
2022/10/18 13:34:23;;;;;;;;;;;24.50;88.50;;;;;;5057782;28;19909;-53
2022/10/18 13:36:59;;;;;;;;;;;24.30;86.70;;;;;;5057833;28;20368;-53
2022/10/18 13:39:25;;;;;;;;;;;24.10;85.00;;;;;;5057712;28;19958;-54
2022/10/18 13:41:51;;;;;;;;;;;23.90;87.30;;;;;;5057814;28;19909;-56
2022/10/18 13:44:39;;;;;;;;;;;23.70;89.90;;;;;;5057933;28;19909;-55
2022/10/18 13:47:04;;;;;;;;;;;23.70;86.30;;;;;;5057802;28;19909;-52
2022/10/18 13:49:30;;;;;;;;;;;23.80;88.60;;;;;;5057870;28;19980;-52
2022/10/18 13:51:58;;;;;;;;;;;23.70;86.10;;;;;;5057607;28;19915;-55
2022/10/18 13:54:43;;;;;;;;;;;23.80;89.30;;;;;;5057593;28;20380;-55
2022/10/18 13:57:28;;;;;;;;;;;23.90;85.90;;;;;;5057903;28;19909;-55
2022/10/18 13:59:57;;;;;;;;;;;23.70;86.60;;;;;;5057501;28;19915;-53
2022/10/18 14:02:41;;;;;;;;;;;23.30;84.70;;;;;;5057794;28;19916;-55
2022/10/18 14:05:25;;;;;;;;;;;23.20;87.40;;;;;;5057625;28;19971;-54
2022/10/18 14:07:56;;;;;;;;;;;23.10;88.80;;;;;;5057581;28;20316;-54
2022/10/18 14:10:23;;;;;;;;;;;23.00;89.40;;;;;;5057886;28;19916;-53
2022/10/18 14:12:53;;;;;;;;;;;22.90;90.30;;;;;;5057650;28;20368;-54
2022/10/18 14:15:32;;;;;;;;;;;22.80;90.10;;;;;;5057324;28;20641;-52
2022/10/18 14:18:05;;;;;;;;;;;22.80;89.30;;;;;;5057187;28;19909;-55
2022/10/18 14:20:35;;;;;;;;;;;22.70;90.00;;;;;;5057344;28;20296;-53
2022/10/18 14:23:10;;;;;;;;;;;22.50;90.00;;;;;;5057565;28;20012;-51
2022/10/18 14:25:36;;;;;;;;;;;22.60;90.50;;;;;;5057278;28;19909;-54